• Join FlightAware (Why Join?)
  • Login
  • US Flag 
09:10PM EDT


 

Airport Tracker/Info


-or-


 

Live Flight TrackerFlight Track Log ✈ EJA396 ✈ 18-Jun-2013 ✈ KPHL - MYCB / CAT

Flight Track Log - Related Links

Times and Time Zones

All times are in EDT time to prevent confusion due to time zone crossing. See the EJA396 flight status page for this flight to view local times or setup timezone preferences in your user account.

Time Position Orientation Groundspeed Altitude Reporting Facility
EDT Latitude Longitude Course Direction KTS MPH feet Rate Location/Type
09:14AM 39.8667 -75.2667 205° Southwest 174 200 600  Level Philadelphia TRACON
09:16AM 39.7361 -75.3458 205° Southwest 230 265 8,000 3,360 Climbing Washington Center
09:17AM 39.6592 -75.3517 183° South 261 300 11,800 3,540 Climbing Washington Center
09:18AM 39.5778 -75.3572 183° South 282 325 15,100 2,040 Climbing Washington Center
09:19AM 39.4819 -75.3656 184° South 313 360 16,000 540 Climbing Washington Center
09:20AM 39.3800 -75.3686 181° South 350 403 16,200 480 Climbing Washington Center
09:21AM 39.2800 -75.3772 184° South 367 422 17,000 1,260 Climbing Washington Center
09:22AM 39.1800 -75.3853 184° South 367 422 18,700 2,400 Climbing Washington Center
09:23AM 39.0883 -75.3992 187° South 355 409 21,800 2,520 Climbing Washington Center
09:24AM 38.9944 -75.4128 186° South 348 400 23,800 1,980 Climbing Washington Center
09:25AM 38.9047 -75.4317 189° South 343 395 25,800 1,680 Climbing Washington Center
09:26AM 38.8131 -75.4425 185° South 338 389 27,200 1,020 Climbing Washington Center
09:27AM 38.7236 -75.4558 187° South 332 382 27,900 840 Climbing Washington Center
09:28AM 38.6256 -75.4694 186° South 337 388 28,900 960 Climbing Washington Center
09:29AM 38.5256 -75.4856 187° South 356 410 29,900 960 Climbing Washington Center
09:30AM 38.4253 -75.5017 187° South 362 417 30,900 960 Climbing Washington Center
09:31AM 38.3336 -75.5442 200° South 362 417 31,900 1,140 Climbing Washington Center
09:32AM 38.2356 -75.5917 201° Southwest 357 411 33,200 1,200 Climbing Washington Center
09:33AM 38.1481 -75.6419 204° Southwest 352 405 34,300 1,080 Climbing Washington Center
09:34AM 38.0625 -75.6867 202° Southwest 347 399 35,400 1,020 Climbing Washington Center
09:35AM 37.9811 -75.7367 206° Southwest 336 387 36,400 840 Climbing Washington Center
09:36AM 37.8997 -75.7811 203° Southwest 336 387 37,200 660 Climbing Washington Center
09:37AM 37.8308 -75.8153 201° Southwest 336 387 37,800 660 Climbing Washington Center
09:38AM 37.7308 -75.8675 202° Southwest 336 387 38,600 780 Climbing Washington Center
09:39AM 37.6431 -75.9117 202° Southwest 336 387 39,400 660 Climbing Washington Center
09:40AM 37.5572 -75.9586 203° Southwest 336 387 40,000 300 Climbing Washington Center
09:41AM 37.4675 -76.0078 204° Southwest 341 392 40,000  Level Washington Center
09:42AM 37.3714 -76.0569 202° Southwest 355 409 40,000  Level Washington Center
09:43AM 37.2689 -76.1086 202° Southwest 379 436 40,000  Level Washington Center
09:44AM 37.1603 -76.1600 201° Southwest 402 463 40,000  Level Washington Center
09:45AM 37.0536 -76.2139 202° Southwest 414 476 40,000  Level Washington Center
09:46AM 36.9469 -76.2703 203° Southwest 414 476 40,000  Level Washington Center
09:47AM 36.8403 -76.3239 202° Southwest 414 476 40,000  Level Washington Center
09:48AM 36.7333 -76.3772 202° Southwest 414 476 40,000  Level Washington Center
09:49AM 36.6372 -76.4331 205° Southwest 414 476 40,100 420 Climbing Washington Center
09:50AM 36.5367 -76.4811 201° Southwest 414 476 40,900 420 Climbing Washington Center
09:51AM 36.4319 -76.5342 202° Southwest 414 476 41,000  Climbing Washington Center
09:52AM 36.3272 -76.5872 202° Southwest 414 476 41,000  Level Washington Center
09:53AM 36.2225 -76.6400 202° Southwest 414 476 41,000  Level Washington Center
09:54AM 36.1133 -76.6925 201° Southwest 414 476 41,000  Level Washington Center
09:55AM 36.0086 -76.7450 202° Southwest 414 476 41,000  Level Washington Center
09:56AM 35.9058 -76.7997 203° Southwest 414 476 41,000  Level Washington Center
09:57AM 35.7969 -76.8469 199° South 414 476 41,000  Level Washington Center
09:58AM 35.6919 -76.8989 202° Southwest 414 476 41,000  Level Washington Center
09:59AM 35.5911 -76.9533 204° Southwest 409 471 41,100 360 Climbing Washington Center
10:00AM 35.4758 -77.0103 202° Southwest 409 471 41,800 600 Climbing Washington Center
10:01AM 35.3708 -77.0592 201° Southwest 409 471 42,400 540 Climbing Washington Center
10:02AM 35.2722 -77.1108 203° Southwest 402 463 43,000 300 Climbing Washington Center
10:03AM 35.1714 -77.1597 202° Southwest 397 457 43,000  Level Washington Center
10:04AM 35.0683 -77.2111 202° Southwest 397 457 43,000  Level Washington Center
10:05AM 34.9636 -77.2597 201° Southwest 402 463 43,000  Level Washington Center
10:06AM 34.8583 -77.3108 202° Southwest 408 470 43,000  Level Washington Center
10:07AM 34.7492 -77.3667 203° Southwest 413 475 43,000  Level Washington Center
10:08AM 34.6419 -77.4172 201° Southwest 418 481 43,000  Level Washington Center
10:09AM 34.5306 -77.4628 199° South 418 481 43,000  Level Washington Center
10:11AM 34.2975 -77.5114 190° South 438 504 43,000  Level Jacksonville Center
10:12AM 34.1753 -77.5367 190° South 443 510 43,000  Level Jacksonville Center
10:13AM 34.0597 -77.5611 190° South 443 510 43,000  Level Jacksonville Center
10:14AM 33.9378 -77.5886 191° South 443 510 43,000  Level Jacksonville Center
10:15AM 33.8200 -77.6183 192° South 443 510 43,000  Level Jacksonville Center
10:16AM 33.7019 -77.6378 188° South 440 506 43,000  Level Jacksonville Center
10:17AM 33.5944 -77.6642 192° South 445 512 43,000  Level Jacksonville Center
10:18AM 33.4744 -77.6886 190° South 445 512 43,000  Level Jacksonville Center
10:19AM 33.3547 -77.7156 191° South 445 512 43,000  Level Jacksonville Center
10:20AM 33.2347 -77.7400 190° South 445 512 43,000  Level Jacksonville Center
10:21AM 33.1167 -77.7667 191° South 445 512 43,000  Level Jacksonville Center
10:22AM 32.9967 -77.7933 191° South 445 512 43,000  Level Jacksonville Center
10:23AM 32.8789 -77.8172 190° South 445 512 43,000  Level Jacksonville Center
10:24AM 32.7608 -77.8389 189° South 445 512 43,000  Level Jacksonville Center
10:25AM 32.6408 -77.8653 190° South 445 512 43,000  Level Jacksonville Center
10:26AM 32.5197 -77.8694 182° South 445 512 43,000  Level Jacksonville Center
10:27AM 32.3983 -77.8589 176° South 440 506 43,000  Level Jacksonville Center
10:28AM 32.2769 -77.8533 178° South 440 506 43,000  Level Jacksonville Center
10:29AM 32.1536 -77.8453 177° South 440 506 43,000  Level Jacksonville Center
10:30AM 32.0303 -77.8375 177° South 445 512 43,000  Level Jacksonville Center
10:31AM 31.9089 -77.8319 178° South 445 512 43,000  Level Jacksonville Center
10:32AM 31.7875 -77.8239 177° South 445 512 43,000  Level Jacksonville Center
10:33AM 31.6639 -77.8136 176° South 445 512 43,000  Level Jacksonville Center
10:34AM 31.5406 -77.8081 178° South 445 512 43,000  Level Jacksonville Center
10:35AM 31.4169 -77.7978 176° South 445 512 43,000  Level Jacksonville Center
10:36AM 31.2917 -77.7972 180° South 445 512 43,000  Level Jacksonville Center
10:37AM 31.1683 -77.7919 178° South 445 512 43,000  Level Jacksonville Center
10:38AM 31.0450 -77.7864 178° South 445 512 43,000  Level Jacksonville Center
10:39AM 30.9239 -77.7833 179° South 440 506 43,000  Level Jacksonville Center
10:40AM 30.7981 -77.7708 175° South 445 512 43,000  Level Jacksonville Center
10:41AM 30.6744 -77.7606 176° South 445 512 43,000  Level Jacksonville Center
10:42AM 30.5533 -77.7597 180° South 445 512 43,000  Level Jacksonville Center
10:44AM 30.3736 -77.7500 177° South 436 502 43,000  Level Miami Center
10:45AM 30.2797 -77.7397 175° South 441 507 43,000  Level Miami Center
10:46AM 30.1300 -77.6761 160° South 455 524 43,000  Level Miami Center
10:47AM 30.0178 -77.6322 161° South 471 542 43,000  Level Miami Center
10:48AM 29.8969 -77.5833 161° South 457 526 43,000  Level Miami Center
10:49AM 29.8033 -77.5447 160° South 457 526 43,000  Level Miami Center
10:50AM 29.6617 -77.4889 161° South 452 520 43,000  Level Miami Center
10:51AM 29.5597 -77.4478 161° South 445 512 43,000  Level Miami Center
10:52AM 29.4411 -77.4017 161° South 445 512 43,000  Level Miami Center
10:53AM 29.3264 -77.3536 160° South 445 512 43,000  Level Miami Center
10:54AM 29.1972 -77.3031 161° South 428 493 43,000  Level Miami Center
10:55AM 29.0889 -77.2575 160° South 454 522 43,000  Level Miami Center
10:56AM 28.9742 -77.2144 162° South 443 510 43,000  Level Miami Center
10:57AM 28.8597 -77.1689 161° South 443 510 43,000  Level Miami Center
10:58AM 28.7450 -77.1214 160° South 443 510 43,000  Level Miami Center
10:59AM 28.6219 -77.0761 162° South 450 518 43,000  Level Miami Center
11:00AM 28.5031 -77.0286 161° South 450 518 43,000  Level Miami Center
11:01AM 28.3819 -76.9836 162° South 445 512 43,000  Level Miami Center
11:02AM 28.2631 -76.9339 160° South 437 503 43,000  Level Miami Center
11:03AM 28.1336 -76.8892 163° South 448 516 43,000  Level Miami Center
11:04AM 28.0125 -76.8397 160° South 447 514 43,000  Level Miami Center
11:05AM 27.8933 -76.7928 161° South 454 522 43,000  Level Miami Center
11:06AM 27.7764 -76.7528 163° South 448 516 43,000  Level Miami Center
11:07AM 27.6572 -76.7039 160° South 454 522 43,000  Level Miami Center
11:08AM 27.5383 -76.6594 162° South 449 517 43,000  Level Miami Center
11:09AM 27.4128 -76.6083 160° South 457 526 43,000  Level Miami Center
11:10AM 27.2894 -76.5525 158° South 469 540 43,000  Level Miami Center
11:11AM 27.1725 -76.5153 164° South 458 527 43,000  Level Miami Center
11:12AM 27.0533 -76.4714 162° South 453 521 43,000  Level Miami Center
11:13AM 26.9319 -76.4228 160° South 464 534 43,000  Level Miami Center
11:14AM 26.8106 -76.3792 162° South 458 527 43,000  Level Miami Center
11:15AM 26.6914 -76.3331 161° South 463 533 43,000  Level Miami Center
11:16AM 26.5931 -76.2964 162° South 463 533 43,000  Level Miami Center
11:17AM 26.4592 -76.2458 161° South 457 526 43,000  Level Miami Center
11:18AM 26.3356 -76.1978 161° South 464 534 43,000 -360 Level Miami Center
11:19AM 26.2164 -76.1544 162° South 464 534 42,300 -900 Descending Miami Center
11:20AM 26.0950 -76.1089 161° South 464 534 41,200 -1,500 Descending Miami Center
11:21AM 25.9714 -76.0636 162° South 464 534 39,400 -2,400 Descending Miami Center
11:22AM 25.8542 -76.0206 162° South 457 526 36,500 -3,000 Descending Miami Center
11:23AM 25.7369 -75.9775 162° South 451 519 33,500 -2,820 Descending Miami Center
11:24AM 25.6133 -75.9278 160° South 451 519 30,900 -2,700 Descending Miami Center
11:25AM 25.4875 -75.8850 163° South 456 525 28,200 -2,820 Descending Miami Center
11:26AM 25.3619 -75.8375 161° South 469 540 25,300 -3,000 Descending Miami Center
11:27AM 25.2467 -75.7950 162° South 459 528 22,200 -3,000 Descending Miami Center
11:28AM 25.1397 -75.7544 161° South 431 496 19,300 -2,700 Descending Miami Center
11:29AM 25.0328 -75.7167 162° South 418 481 16,900 -2,460 Descending Miami Center
11:30AM 24.9217 -75.6739 161° South 399 459 14,400 -2,400 Descending Miami Center
11:31AM 24.8253 -75.6431 164° South 378 435 12,200 -2,280 Descending Miami Center
11:32AM 24.7333 -75.6117 163° South 365 420 9,900 -2,040 Descending Miami Center
11:33AM 24.6578 -75.5828 161° South 344 396 8,200 -1,500 Descending Miami Center
11:34AM 24.5844 -75.5583 163° South 309 356 7,000 -600 Descending Miami Center
11:35AM 24.5278 -75.5386 162° South 258 297 7,000  Level Miami Center
11:36AM 24.4711 -75.5164 160° South 226 260 7,000  Level Miami Center